• Join FlightAware (Why Join?)
  • Login
  • US Flag 
01:35AM EDT


 

Airport Tracker/Info


-or-


 

Live Flight TrackerFlight Track Log ✈ SKW7363 ✈ 20-Jan-2014 ✈ KSLC - KTWF

Flight Track Log - Related Links

Times and Time Zones

All times are in EST time to prevent confusion due to time zone crossing. See the SKW7363 flight status page for this flight to view local times or setup timezone preferences in your user account.

Time Position Orientation Groundspeed Altitude Reporting Facility
EST Latitude Longitude Course Direction KTS MPH feet Rate Location/Type
10:10PM 40.8022 -112.0006 323° Northwest 153 176 4,800  Level Salt Lake Center
10:11PM 40.8417 -112.0269 333° Northwest 195 224 6,100 1,320 Climbing Salt Lake Center
10:12PM 40.8497 -112.0431 303° West 193 222 6,600 1,500 Climbing Salt Lake Center
10:12PM 40.8750 -112.0867 307° West 211 243 7,700 1,620 Climbing Salt Lake Center
10:13PM 40.8881 -112.0983 326° Northwest 208 239 8,300 1,680 Climbing Salt Lake Center
10:13PM 40.9217 -112.1275 327° Northwest 200 230 9,400 1,620 Climbing Salt Lake Center
10:14PM 40.9758 -112.2453 313° West  Level Estimated
10:14PM 40.9333 -112.1417 317° Northwest 201 231 10,000  Level Salt Lake Center
10:15PM 41.0381 -112.3348 314° West  Level Estimated
10:15PM 40.9872 -112.1989 321° Northwest 203 234 12,000  Level Salt Lake Center
10:16PM 41.1111 -112.4089 323° Northwest  Level FlightAware Approximate
10:16PM 41.0331 -112.2481 321° Northwest 208 239 13,800  Level Salt Lake Center
10:17PM 41.0694 -112.3044 311° West 202 232 15,300 1,320 Climbing Salt Lake Center
10:18PM 41.1061 -112.3622 310° West 203 234 16,600 1,260 Climbing Salt Lake Center
10:19PM 41.1447 -112.4203 311° West 210 242 17,900 960 Climbing Salt Lake Center
10:20PM 41.1833 -112.4789 311° West 210 242 18,600 840 Climbing Salt Lake Center
10:21PM 41.2228 -112.5364 312° West 210 242 19,700 660 Climbing Salt Lake Center
10:22PM 41.2639 -112.5978 312° West 224 258 20,000 120 Climbing Salt Lake Center
10:23PM 41.3197 -112.6814 312° West 250 288 20,000  Level Salt Lake Center
10:24PM 41.3664 -112.7522 311° West 254 292 20,000  Level Salt Lake Center
10:25PM 41.4128 -112.8239 311° West 256 295 20,000  Level Salt Lake Center
10:26PM 41.4583 -112.8961 310° West 255 293 20,000  Level Salt Lake Center
10:27PM 41.5058 -112.9656 312° West 254 292 20,000  Level Salt Lake Center
10:28PM 41.5503 -113.0381 309° West 253 291 20,000  Level Salt Lake Center
10:29PM 41.5978 -113.1097 312° West 256 295 20,000  Level Salt Lake Center
10:30PM 41.6467 -113.1808 313° West 259 298 20,000  Level Salt Lake Center
10:31PM 41.7019 -113.2669 311° West 256 295 20,000  Level Salt Lake Center
10:32PM 41.7489 -113.3386 311° West 255 293 20,000  Level Salt Lake Center
10:33PM 41.7961 -113.4100 312° West 255 293 20,000  Level Salt Lake Center
10:34PM 41.8428 -113.4822 311° West 255 293 20,000  Level Salt Lake Center
10:35PM 41.8892 -113.5556 310° West 258 297 20,000  Level Salt Lake Center
10:36PM 41.9361 -113.6286 311° West 258 297 20,000 -240 Level Salt Lake Center
10:37PM 41.9822 -113.7019 310° West 258 297 19,600 -840 Descending Salt Lake Center
10:38PM 42.0314 -113.7742 313° West 261 300 18,400 -1,080 Descending Salt Lake Center
10:39PM 42.0881 -113.8653 310° West 265 305 17,400 -1,140 Descending Salt Lake Center
10:41PM 42.1356 -113.9400 311° West 264 304 16,100 -1,260 Descending Salt Lake Center
10:42PM 42.1836 -114.0147 311° West 264 304 14,800 -1,560 Descending Salt Lake Center
10:43PM 42.2325 -114.0900 311° West 265 305 13,000 -1,680 Descending Salt Lake Center
10:44PM 42.2761 -114.1581 311° West 268 308 11,400 -1,920 Descending Salt Lake Center
10:45PM 42.3542 -114.2400 322° Northwest 274 315 9,100 -2,280 Descending Salt Lake Center